sensor_id;sensor_type;location;lat;lon;timestamp;pressure;altitude;pressure_sealevel;temperature;humidity
57616;BME280;43816;52.054;-9.494;2024-03-17T00:04:37;100189.63;;;20.92;45.84
57616;BME280;43816;52.054;-9.494;2024-03-17T00:04:47;100234.22;;;21.21;45.83
57616;BME280;43816;52.054;-9.494;2024-03-17T00:04:57;100287.06;;;21.56;45.94
57616;BME280;43816;52.054;-9.494;2024-03-17T00:05:08;100266.97;;;21.42;46.02
57616;BME280;43816;52.054;-9.494;2024-03-17T00:05:18;100262.53;;;21.41;45.89
57616;BME280;43816;52.054;-9.494;2024-03-17T00:05:28;100286.25;;;21.56;45.93
57616;BME280;43816;52.054;-9.494;2024-03-17T00:05:39;100206.78;;;21.07;45.80
57616;BME280;43816;52.054;-9.494;2024-03-17T00:35:40;100254.19;;;21.50;45.47
57616;BME280;43816;52.054;-9.494;2024-03-17T00:35:50;100267.72;;;21.58;45.17
57616;BME280;43816;52.054;-9.494;2024-03-17T00:36:01;100235.38;;;21.40;45.39
57616;BME280;43816;52.054;-9.494;2024-03-17T00:36:11;100245.72;;;21.44;45.40
57616;BME280;43816;52.054;-9.494;2024-03-17T00:36:21;100257.59;;;21.52;45.38
57616;BME280;43816;52.054;-9.494;2024-03-17T00:36:32;100245.50;;;21.46;45.28
57616;BME280;43816;52.054;-9.494;2024-03-17T00:36:42;100252.97;;;21.52;45.48
57616;BME280;43816;52.054;-9.494;2024-03-17T00:36:53;100269.84;;;21.62;45.41
57616;BME280;43816;52.054;-9.494;2024-03-17T00:37:03;100269.84;;;21.62;45.43
57616;BME280;43816;52.054;-9.494;2024-03-17T00:37:13;100248.53;;;21.51;45.24
57616;BME280;43816;52.054;-9.494;2024-03-17T00:37:23;100230.75;;;21.40;45.43
57616;BME280;43816;52.054;-9.494;2024-03-17T00:37:34;100266.28;;;21.62;45.48
57616;BME280;43816;52.054;-9.494;2024-03-17T00:37:44;100266.69;;;21.59;45.38
57616;BME280;43816;52.054;-9.494;2024-03-17T00:37:55;100275.31;;;21.62;45.50
57616;BME280;43816;52.054;-9.494;2024-03-17T00:38:05;100263.94;;;21.59;45.24
57616;BME280;43816;52.054;-9.494;2024-03-17T00:38:15;100264.78;;;21.59;45.39
57616;BME280;43816;52.054;-9.494;2024-03-17T00:38:26;100275.97;;;21.65;45.43
57616;BME280;43816;52.054;-9.494;2024-03-17T00:38:36;100230.13;;;21.38;45.14
57616;BME280;43816;52.054;-9.494;2024-03-17T00:38:46;100240.25;;;21.44;45.45
57616;BME280;43816;52.054;-9.494;2024-03-17T00:38:57;100220.38;;;21.29;45.29
57616;BME280;43816;52.054;-9.494;2024-03-17T00:39:07;100207.94;;;21.26;45.21
57616;BME280;43816;52.054;-9.494;2024-03-17T00:39:17;100263.75;;;21.60;45.48
57616;BME280;43816;52.054;-9.494;2024-03-17T00:39:28;100248.31;;;21.53;45.22
57616;BME280;43816;52.054;-9.494;2024-03-17T00:39:38;100267.31;;;21.61;45.25
57616;BME280;43816;52.054;-9.494;2024-03-17T00:39:49;100268.63;;;21.65;45.13
57616;BME280;43816;52.054;-9.494;2024-03-17T00:40:03;100245.78;;;21.51;45.30
57616;BME280;43816;52.054;-9.494;2024-03-17T00:40:14;100256.75;;;21.58;45.19
57616;BME280;43816;52.054;-9.494;2024-03-17T00:40:24;100262.69;;;21.61;44.96
57616;BME280;43816;52.054;-9.494;2024-03-17T00:40:34;100244.94;;;21.51;45.13
57616;BME280;43816;52.054;-9.494;2024-03-17T00:40:45;100243.91;;;21.52;45.27
57616;BME280;43816;52.054;-9.494;2024-03-17T00:40:55;100239.03;;;21.47;45.21
57616;BME280;43816;52.054;-9.494;2024-03-17T00:41:05;100268.63;;;21.65;45.47
57616;BME280;43816;52.054;-9.494;2024-03-17T00:41:16;100226.31;;;21.39;45.31
57616;BME280;43816;52.054;-9.494;2024-03-17T00:41:26;100263.53;;;21.62;45.49
57616;BME280;43816;52.054;-9.494;2024-03-17T00:41:36;100267.56;;;21.66;45.32
57616;BME280;43816;52.054;-9.494;2024-03-17T00:41:47;100242.00;;;21.52;45.19
57616;BME280;43816;52.054;-9.494;2024-03-17T00:41:57;100261.84;;;21.61;45.06
57616;BME280;43816;52.054;-9.494;2024-03-17T00:42:07;100160.03;;;21.02;45.23
57616;BME280;43816;52.054;-9.494;2024-03-17T00:42:18;100235.84;;;21.43;45.30
57616;BME280;43816;52.054;-9.494;2024-03-17T00:42:29;100244.56;;;21.54;45.25
57616;BME280;43816;52.054;-9.494;2024-03-17T00:42:40;100265.69;;;21.67;45.36
57616;BME280;43816;52.054;-9.494;2024-03-17T00:42:50;100266.09;;;21.64;45.08
57616;BME280;43816;52.054;-9.494;2024-03-17T00:43:00;100243.03;;;21.51;45.11
57616;BME280;43816;52.054;-9.494;2024-03-17T00:43:11;100255.72;;;21.59;45.17
57616;BME280;43816;52.054;-9.494;2024-03-17T00:43:21;100257.88;;;21.64;45.27
57616;BME280;43816;52.054;-9.494;2024-03-17T00:43:31;100244.16;;;21.57;45.24
57616;BME280;43816;52.054;-9.494;2024-03-17T00:43:42;100267.34;;;21.68;45.12
57616;BME280;43816;52.054;-9.494;2024-03-17T00:43:52;100264.63;;;21.68;45.16
57616;BME280;43816;52.054;-9.494;2024-03-17T00:44:03;100247.72;;;21.57;45.18
57616;BME280;43816;52.054;-9.494;2024-03-17T00:44:13;100245.59;;;21.53;44.89
57616;BME280;43816;52.054;-9.494;2024-03-17T00:44:23;100236.53;;;21.52;45.26
57616;BME280;43816;52.054;-9.494;2024-03-17T00:44:33;100230.63;;;21.49;45.37
57616;BME280;43816;52.054;-9.494;2024-03-17T00:44:44;100240.50;;;21.50;45.11
57616;BME280;43816;52.054;-9.494;2024-03-17T00:44:54;100235.69;;;21.52;45.18
57616;BME280;43816;52.054;-9.494;2024-03-17T00:45:05;100247.91;;;21.56;45.21
57616;BME280;43816;52.054;-9.494;2024-03-17T00:45:15;100236.72;;;21.51;45.20
57616;BME280;43816;52.054;-9.494;2024-03-17T00:45:25;100221.06;;;21.38;45.04
57616;BME280;43816;52.054;-9.494;2024-03-17T00:45:36;100237.78;;;21.50;45.20
57616;BME280;43816;52.054;-9.494;2024-03-17T00:45:52;100266.50;;;21.67;45.21
57616;BME280;43816;52.054;-9.494;2024-03-17T00:46:03;100253.00;;;21.59;45.30
57616;BME280;43816;52.054;-9.494;2024-03-17T00:46:14;100229.94;;;21.47;45.01
57616;BME280;43816;52.054;-9.494;2024-03-17T00:46:24;100261.03;;;21.67;45.19
57616;BME280;43816;52.054;-9.494;2024-03-17T00:46:34;100251.97;;;21.60;45.22
57616;BME280;43816;52.054;-9.494;2024-03-17T00:46:45;100257.66;;;21.65;45.39
57616;BME280;43816;52.054;-9.494;2024-03-17T00:46:55;100252.16;;;21.58;45.13
57616;BME280;43816;52.054;-9.494;2024-03-17T00:47:06;100227.88;;;21.49;45.08
57616;BME280;43816;52.054;-9.494;2024-03-17T00:47:16;100231.47;;;21.49;45.26
57616;BME280;43816;52.054;-9.494;2024-03-17T00:47:26;100268.19;;;21.68;45.12
57616;BME280;43816;52.054;-9.494;2024-03-17T00:47:37;100241.19;;;21.52;44.87
57616;BME280;43816;52.054;-9.494;2024-03-17T00:47:49;100258.50;;;21.66;45.19
57616;BME280;43816;52.054;-9.494;2024-03-17T00:47:59;100265.44;;;21.68;45.11
57616;BME280;43816;52.054;-9.494;2024-03-17T00:48:09;100251.97;;;21.60;45.01
57616;BME280;43816;52.054;-9.494;2024-03-17T00:48:20;100257.84;;;21.57;45.07
57616;BME280;43816;52.054;-9.494;2024-03-17T00:48:30;100268.63;;;21.65;45.26
57616;BME280;43816;52.054;-9.494;2024-03-17T00:48:40;100246.22;;;21.55;45.02
57616;BME280;43816;52.054;-9.494;2024-03-17T00:48:51;100255.94;;;21.57;45.31
57616;BME280;43816;52.054;-9.494;2024-03-17T00:49:01;100264.81;;;21.66;45.16
57616;BME280;43816;52.054;-9.494;2024-03-17T00:49:12;100272.63;;;21.69;45.42
57616;BME280;43816;52.054;-9.494;2024-03-17T00:49:23;100264.41;;;21.69;44.99
57616;BME280;43816;52.054;-9.494;2024-03-17T00:49:33;100216.88;;;21.42;45.22
57616;BME280;43816;52.054;-9.494;2024-03-17T00:49:43;100249.22;;;21.60;45.38
57616;BME280;43816;52.054;-9.494;2024-03-17T00:49:54;100269.06;;;21.69;45.27
57616;BME280;43816;52.054;-9.494;2024-03-17T00:50:04;100249.41;;;21.58;45.19
57616;BME280;43816;52.054;-9.494;2024-03-17T00:50:15;100262.94;;;21.67;45.21
57616;BME280;43816;52.054;-9.494;2024-03-17T00:50:25;100248.78;;;21.63;45.21
57616;BME280;43816;52.054;-9.494;2024-03-17T00:50:35;100245.81;;;21.58;45.29
57616;BME280;43816;52.054;-9.494;2024-03-17T00:50:46;100264.41;;;21.69;45.14
57616;BME280;43816;52.054;-9.494;2024-03-17T00:50:57;100255.13;;;21.64;45.13
57616;BME280;43816;52.054;-9.494;2024-03-17T00:51:07;100219.19;;;21.38;45.32
57616;BME280;43816;52.054;-9.494;2024-03-17T00:51:17;100221.28;;;21.43;45.20
57616;BME280;43816;52.054;-9.494;2024-03-17T00:51:28;100247.09;;;21.55;45.17
57616;BME280;43816;52.054;-9.494;2024-03-17T00:51:38;100253.44;;;21.62;45.15
57616;BME280;43816;52.054;-9.494;2024-03-17T00:51:48;100252.59;;;21.62;45.27
57616;BME280;43816;52.054;-9.494;2024-03-17T00:51:58;100234.00;;;21.51;45.05
57616;BME280;43816;52.054;-9.494;2024-03-17T00:52:09;100258.94;;;21.69;45.17
57616;BME280;43816;52.054;-9.494;2024-03-17T00:52:19;100267.97;;;21.70;45.00
57616;BME280;43816;52.054;-9.494;2024-03-17T00:52:30;100244.16;;;21.57;45.08
57616;BME280;43816;52.054;-9.494;2024-03-17T00:52:40;100255.72;;;21.59;45.00
57616;BME280;43816;52.054;-9.494;2024-03-17T00:52:50;100222.16;;;21.43;45.03
57616;BME280;43816;52.054;-9.494;2024-03-17T00:53:00;100252.59;;;21.62;45.14
57616;BME280;43816;52.054;-9.494;2024-03-17T00:53:11;100237.38;;;21.53;45.13
57616;BME280;43816;52.054;-9.494;2024-03-17T00:53:21;100223.44;;;21.48;45.24
57616;BME280;43816;52.054;-9.494;2024-03-17T00:53:32;100239.06;;;21.54;45.14
57616;BME280;43816;52.054;-9.494;2024-03-17T00:53:42;100241.59;;;21.55;44.96
57616;BME280;43816;52.054;-9.494;2024-03-17T00:53:53;100254.72;;;21.67;45.19
57616;BME280;43816;52.054;-9.494;2024-03-17T00:54:03;100261.47;;;21.71;45.23
57616;BME280;43816;52.054;-9.494;2024-03-17T00:54:13;100255.16;;;21.70;45.14
57616;BME280;43816;52.054;-9.494;2024-03-17T00:54:24;100238.03;;;21.61;45.08
57616;BME280;43816;52.054;-9.494;2024-03-17T00:54:34;100257.03;;;21.70;44.95
57616;BME280;43816;52.054;-9.494;2024-03-17T00:54:47;100251.53;;;21.63;45.14
57616;BME280;43816;52.054;-9.494;2024-03-17T00:54:57;100243.50;;;21.61;45.24
57616;BME280;43816;52.054;-9.494;2024-03-17T00:55:07;100242.91;;;21.66;44.96
57616;BME280;43816;52.054;-9.494;2024-03-17T00:55:18;100254.28;;;21.70;45.22
57616;BME280;43816;52.054;-9.494;2024-03-17T00:55:28;100238.28;;;21.60;45.10
57616;BME280;43816;52.054;-9.494;2024-03-17T00:55:38;100236.56;;;21.59;44.94
57616;BME280;43816;52.054;-9.494;2024-03-17T00:55:55;100243.50;;;21.61;45.06
57616;BME280;43816;52.054;-9.494;2024-03-17T00:56:05;100252.19;;;21.65;45.07
57616;BME280;43816;52.054;-9.494;2024-03-17T00:56:16;100233.19;;;21.57;45.15
57616;BME280;43816;52.054;-9.494;2024-03-17T00:56:26;100238.03;;;21.61;45.09
57616;BME280;43816;52.054;-9.494;2024-03-17T00:56:36;100228.75;;;21.56;44.99
57616;BME280;43816;52.054;-9.494;2024-03-17T00:56:46;100240.34;;;21.58;45.10
57616;BME280;43816;52.054;-9.494;2024-03-17T00:56:57;100250.09;;;21.67;44.97
57616;BME280;43816;52.054;-9.494;2024-03-17T00:57:07;100248.38;;;21.66;44.85
57616;BME280;43816;52.054;-9.494;2024-03-17T00:57:17;100224.09;;;21.50;45.13
57616;BME280;43816;52.054;-9.494;2024-03-17T00:57:28;100254.28;;;21.70;45.01
57616;BME280;43816;52.054;-9.494;2024-03-17T00:57:38;100257.03;;;21.70;45.04
57616;BME280;43816;52.054;-9.494;2024-03-17T00:57:48;100256.19;;;21.69;44.94
57616;BME280;43816;52.054;-9.494;2024-03-17T00:57:59;100256.19;;;21.69;45.04
57616;BME280;43816;52.054;-9.494;2024-03-17T00:58:09;100254.72;;;21.67;44.99
57616;BME280;43816;52.054;-9.494;2024-03-17T00:58:22;100234.03;;;21.57;45.14
57616;BME280;43816;52.054;-9.494;2024-03-17T00:58:32;100249.47;;;21.65;44.95
57616;BME280;43816;52.054;-9.494;2024-03-17T00:58:43;100250.50;;;21.64;44.98
57616;BME280;43816;52.054;-9.494;2024-03-17T00:58:53;100252.19;;;21.65;44.98
57616;BME280;43816;52.054;-9.494;2024-03-17T00:59:03;100220.72;;;21.48;45.22
57616;BME280;43816;52.054;-9.494;2024-03-17T00:59:14;100258.09;;;21.69;45.13
57616;BME280;43816;52.054;-9.494;2024-03-17T00:59:24;100230.22;;;21.52;45.32
57616;BME280;43816;52.054;-9.494;2024-03-17T00:59:34;100220.88;;;21.46;44.87
57616;BME280;43816;52.054;-9.494;2024-03-17T00:59:45;100259.78;;;21.70;44.96
57616;BME280;43816;52.054;-9.494;2024-03-17T00:59:55;100245.41;;;21.61;45.08
57616;BME280;43816;52.054;-9.494;2024-03-17T01:00:07;100237.16;;;21.54;44.95
57616;BME280;43816;52.054;-9.494;2024-03-17T01:00:18;100243.94;;;21.58;45.08
57616;BME280;43816;52.054;-9.494;2024-03-17T01:00:28;100243.09;;;21.58;45.07
57616;BME280;43816;52.054;-9.494;2024-03-17T01:00:38;100256.19;;;21.69;45.02
57616;BME280;43816;52.054;-9.494;2024-03-17T01:00:49;100251.56;;;21.70;45.10
57616;BME280;43816;52.054;-9.494;2024-03-17T01:00:59;100248.38;;;21.66;44.97
57616;BME280;43816;52.054;-9.494;2024-03-17T01:01:09;100235.72;;;21.58;44.95
57616;BME280;43816;52.054;-9.494;2024-03-17T01:01:20;100245.66;;;21.66;45.04
57616;BME280;43816;52.054;-9.494;2024-03-17T01:01:30;100222.84;;;21.52;45.26
57616;BME280;43816;52.054;-9.494;2024-03-17T01:01:40;100242.88;;;21.59;44.81
57616;BME280;43816;52.054;-9.494;2024-03-17T01:01:51;100211.59;;;21.40;44.99
57616;BME280;43816;52.054;-9.494;2024-03-17T01:02:01;100251.13;;;21.66;45.12
57616;BME280;43816;52.054;-9.494;2024-03-17T01:02:12;100254.28;;;21.70;44.86
57616;BME280;43816;52.054;-9.494;2024-03-17T01:02:22;100217.56;;;21.51;45.40
57616;BME280;43816;52.054;-9.494;2024-03-17T01:02:32;100226.84;;;21.56;45.07
57616;BME280;43816;52.054;-9.494;2024-03-17T01:02:43;100232.78;;;21.60;45.06
57616;BME280;43816;52.054;-9.494;2024-03-17T01:02:53;100230.22;;;21.52;44.94
57616;BME280;43816;52.054;-9.494;2024-03-17T01:03:03;100254.28;;;21.70;44.98
57616;BME280;43816;52.054;-9.494;2024-03-17T01:03:14;100252.44;;;21.70;44.96
57616;BME280;43816;52.054;-9.494;2024-03-17T01:03:25;100239.94;;;21.61;45.14
57616;BME280;43816;52.054;-9.494;2024-03-17T01:03:35;100249.25;;;21.67;44.93
57616;BME280;43816;52.054;-9.494;2024-03-17T01:03:46;100237.00;;;21.62;45.14
57616;BME280;43816;52.054;-9.494;2024-03-17T01:03:56;100239.53;;;21.64;44.96
57616;BME280;43816;52.054;-9.494;2024-03-17T01:04:07;100235.06;;;21.56;45.23
57616;BME280;43816;52.054;-9.494;2024-03-17T01:04:17;100238.28;;;21.60;45.01
57616;BME280;43816;52.054;-9.494;2024-03-17T01:04:27;100222.00;;;21.52;44.99
57616;BME280;43816;52.054;-9.494;2024-03-17T01:04:39;100233.84;;;21.59;44.93
57616;BME280;43816;52.054;-9.494;2024-03-17T01:04:49;100256.00;;;21.71;44.97
57616;BME280;43816;52.054;-9.494;2024-03-17T01:04:59;100224.56;;;21.53;45.08
57616;BME280;43816;52.054;-9.494;2024-03-17T01:05:10;100243.78;;;21.67;45.04
57616;BME280;43816;52.054;-9.494;2024-03-17T01:05:20;100242.91;;;21.66;45.02
57616;BME280;43816;52.054;-9.494;2024-03-17T01:05:30;100248.19;;;21.68;44.85
57616;BME280;43816;52.054;-9.494;2024-03-17T01:05:41;100246.94;;;21.70;44.83
57616;BME280;43816;52.054;-9.494;2024-03-17T01:05:51;100239.94;;;21.61;45.16
57616;BME280;43816;52.054;-9.494;2024-03-17T01:06:04;100241.66;;;21.62;44.99
57616;BME280;43816;52.054;-9.494;2024-03-17T01:06:14;100206.75;;;21.42;45.05
57616;BME280;43816;52.054;-9.494;2024-03-17T01:06:25;100250.91;;;21.68;45.13
57616;BME280;43816;52.054;-9.494;2024-03-17T01:06:35;100254.28;;;21.70;44.90
57616;BME280;43816;52.054;-9.494;2024-03-17T01:06:46;100247.97;;;21.69;44.84
57616;BME280;43816;52.054;-9.494;2024-03-17T01:06:56;100212.09;;;21.51;45.04
57616;BME280;43816;52.054;-9.494;2024-03-17T01:07:06;100192.84;;;21.37;44.94
57616;BME280;43816;52.054;-9.494;2024-03-17T01:07:17;100243.78;;;21.67;45.09
57616;BME280;43816;52.054;-9.494;2024-03-17T01:07:27;100193.69;;;21.38;45.23
57616;BME280;43816;52.054;-9.494;2024-03-17T01:07:37;100221.19;;;21.58;44.90
57616;BME280;43816;52.054;-9.494;2024-03-17T01:07:48;100218.84;;;21.55;44.84
57616;BME280;43816;52.054;-9.494;2024-03-17T01:07:58;100225.22;;;21.62;44.98
57616;BME280;43816;52.054;-9.494;2024-03-17T01:08:09;100238.72;;;21.70;44.94
57616;BME280;43816;52.054;-9.494;2024-03-17T01:08:19;100221.84;;;21.60;45.04
57616;BME280;43816;52.054;-9.494;2024-03-17T01:08:30;100221.19;;;21.58;44.87
57616;BME280;43816;52.054;-9.494;2024-03-17T01:08:40;100239.78;;;21.69;45.07
57616;BME280;43816;52.054;-9.494;2024-03-17T01:08:51;100226.50;;;21.66;44.91
57616;BME280;43816;52.054;-9.494;2024-03-17T01:09:01;100207.47;;;21.51;44.96
57616;BME280;43816;52.054;-9.494;2024-03-17T01:09:11;100221.41;;;21.63;44.95
57616;BME280;43816;52.054;-9.494;2024-03-17T01:09:22;100207.06;;;21.54;44.75
57616;BME280;43816;52.054;-9.494;2024-03-17T01:09:32;100228.38;;;21.66;44.79
57616;BME280;43816;52.054;-9.494;2024-03-17T01:09:42;100218.66;;;21.56;44.97
57616;BME280;43816;52.054;-9.494;2024-03-17T01:09:52;100217.59;;;21.57;44.61
57616;BME280;43816;52.054;-9.494;2024-03-17T01:10:03;100217.22;;;21.60;44.81
57616;BME280;43816;52.054;-9.494;2024-03-17T01:10:13;100200.97;;;21.52;44.90
57616;BME280;43816;52.054;-9.494;2024-03-17T01:10:24;100186.13;;;21.40;45.05
57616;BME280;43816;52.054;-9.494;2024-03-17T01:10:37;100195.25;;;21.47;44.95
57616;BME280;43816;52.054;-9.494;2024-03-17T01:10:51;100229.66;;;21.70;44.90
57616;BME280;43816;52.054;-9.494;2024-03-17T01:11:01;100214.66;;;21.59;44.84
57616;BME280;43816;52.054;-9.494;2024-03-17T01:11:15;100211.50;;;21.55;44.97
57616;BME280;43816;52.054;-9.494;2024-03-17T01:11:26;100223.75;;;21.66;44.97
57616;BME280;43816;52.054;-9.494;2024-03-17T01:11:36;100231.56;;;21.69;44.84
57616;BME280;43816;52.054;-9.494;2024-03-17T01:11:46;100231.13;;;21.66;44.87
57616;BME280;43816;52.054;-9.494;2024-03-17T01:11:57;100193.16;;;21.49;44.79
57616;BME280;43816;52.054;-9.494;2024-03-17T01:12:07;100212.97;;;21.58;44.78
57616;BME280;43816;52.054;-9.494;2024-03-17T01:12:17;100225.66;;;21.66;44.79
57616;BME280;43816;52.054;-9.494;2024-03-17T01:12:27;100238.06;;;21.68;44.84
57616;BME280;43816;52.054;-9.494;2024-03-17T01:12:38;100206.88;;;21.56;44.85
57616;BME280;43816;52.054;-9.494;2024-03-17T01:12:48;100226.06;;;21.62;44.97
57616;BME280;43816;52.054;-9.494;2024-03-17T01:12:58;100189.31;;;21.43;44.72
57616;BME280;43816;52.054;-9.494;2024-03-17T01:13:09;100231.56;;;21.69;44.70
57616;BME280;43816;52.054;-9.494;2024-03-17T01:13:19;100192.06;;;21.43;44.80
57616;BME280;43816;52.054;-9.494;2024-03-17T01:13:30;100232.41;;;21.70;44.73
57616;BME280;43816;52.054;-9.494;2024-03-17T01:13:40;100221.63;;;21.61;44.63
57616;BME280;43816;52.054;-9.494;2024-03-17T01:13:51;100207.91;;;21.55;44.88
57616;BME280;43816;52.054;-9.494;2024-03-17T01:14:01;100228.81;;;21.69;44.75
57616;BME280;43816;52.054;-9.494;2024-03-17T01:14:11;100194.19;;;21.48;44.94
57616;BME280;43816;52.054;-9.494;2024-03-17T01:14:22;100226.50;;;21.66;44.95
57616;BME280;43816;52.054;-9.494;2024-03-17T01:14:32;100228.81;;;21.69;45.08
57616;BME280;43816;52.054;-9.494;2024-03-17T01:14:43;100220.16;;;21.59;44.78
57616;BME280;43816;52.054;-9.494;2024-03-17T01:14:53;100226.06;;;21.62;44.73
57616;BME280;43816;52.054;-9.494;2024-03-17T01:15:05;100227.09;;;21.61;44.55
57616;BME280;43816;52.054;-9.494;2024-03-17T01:15:15;100193.09;;;21.42;44.88
57616;BME280;43816;52.054;-9.494;2024-03-17T01:15:26;100219.94;;;21.60;44.77
57616;BME280;43816;52.054;-9.494;2024-03-17T01:15:37;100233.25;;;21.70;44.78
57616;BME280;43816;52.054;-9.494;2024-03-17T01:15:52;100208.75;;;21.55;44.73
57616;BME280;43816;52.054;-9.494;2024-03-17T01:16:02;100207.25;;;21.53;44.75
57616;BME280;43816;52.054;-9.494;2024-03-17T01:16:13;100237.88;;;21.70;44.85
57616;BME280;43816;52.054;-9.494;2024-03-17T01:16:24;100222.47;;;21.62;44.64
57616;BME280;43816;52.054;-9.494;2024-03-17T01:16:34;100232.41;;;21.70;45.02
57616;BME280;43816;52.054;-9.494;2024-03-17T01:16:44;100229.22;;;21.66;44.81
57616;BME280;43816;52.054;-9.494;2024-03-17T01:16:56;100212.13;;;21.57;44.92
57616;BME280;43816;52.054;-9.494;2024-03-17T01:17:07;100222.47;;;21.62;44.73
57616;BME280;43816;52.054;-9.494;2024-03-17T01:17:17;100224.81;;;21.65;44.74
57616;BME280;43816;52.054;-9.494;2024-03-17T01:17:27;100189.72;;;21.40;44.72
57616;BME280;43816;52.054;-9.494;2024-03-17T01:17:38;100237.88;;;21.70;44.93
57616;BME280;43816;52.054;-9.494;2024-03-17T01:17:48;100215.31;;;21.61;44.92
57616;BME280;43816;52.054;-9.494;2024-03-17T01:17:58;100216.81;;;21.64;44.89
57616;BME280;43816;52.054;-9.494;2024-03-17T01:18:09;100220.38;;;21.64;44.66
57616;BME280;43816;52.054;-9.494;2024-03-17T01:18:19;100218.88;;;21.61;44.64
57616;BME280;43816;52.054;-9.494;2024-03-17T01:18:29;100231.56;;;21.69;44.49
57616;BME280;43816;52.054;-9.494;2024-03-17T01:18:40;100170.31;;;21.35;44.70
57616;BME280;43816;52.054;-9.494;2024-03-17T01:18:50;100209.19;;;21.59;44.66
57616;BME280;43816;52.054;-9.494;2024-03-17T01:19:00;100177.06;;;21.39;44.83
57616;BME280;43816;52.054;-9.494;2024-03-17T01:19:10;100202.84;;;21.52;44.74
57616;BME280;43816;52.054;-9.494;2024-03-17T01:19:21;100228.81;;;21.69;44.86
57616;BME280;43816;52.054;-9.494;2024-03-17T01:19:32;100221.00;;;21.66;45.02
57616;BME280;43816;52.054;-9.494;2024-03-17T01:19:42;100205.81;;;21.57;44.66
57616;BME280;43816;52.054;-9.494;2024-03-17T01:19:52;100206.63;;;21.51;44.75
57616;BME280;43816;52.054;-9.494;2024-03-17T01:20:03;100194.66;;;21.52;44.90
57616;BME280;43816;52.054;-9.494;2024-03-17T01:20:13;100228.00;;;21.69;44.98
57616;BME280;43816;52.054;-9.494;2024-03-17T01:20:23;100219.53;;;21.64;44.77
57616;BME280;43816;52.054;-9.494;2024-03-17T01:20:35;100198.81;;;21.48;44.86
57616;BME280;43816;52.054;-9.494;2024-03-17T01:20:45;100193.97;;;21.50;44.97
57616;BME280;43816;52.054;-9.494;2024-03-17T01:20:56;100210.03;;;21.59;44.89
57616;BME280;43816;52.054;-9.494;2024-03-17T01:21:06;100223.75;;;21.66;44.95
57616;BME280;43816;52.054;-9.494;2024-03-17T01:21:17;100187.69;;;21.49;44.88
57616;BME280;43816;52.054;-9.494;2024-03-17T01:21:27;100221.44;;;21.70;44.81
57616;BME280;43816;52.054;-9.494;2024-03-17T01:21:37;100207.06;;;21.54;44.69
57616;BME280;43816;52.054;-9.494;2024-03-17T01:21:48;100191.91;;;21.52;45.06
57616;BME280;43816;52.054;-9.494;2024-03-17T01:22:00;100224.81;;;21.65;44.93
57616;BME280;43816;52.054;-9.494;2024-03-17T01:22:10;100218.88;;;21.61;44.90
57616;BME280;43816;52.054;-9.494;2024-03-17T01:22:21;100218.28;;;21.66;44.52
57616;BME280;43816;52.054;-9.494;2024-03-17T01:22:31;100185.50;;;21.44;44.85
57616;BME280;43816;52.054;-9.494;2024-03-17T01:22:41;100219.13;;;21.67;44.94
57616;BME280;43816;52.054;-9.494;2024-03-17T01:22:52;100215.53;;;21.66;44.83
57616;BME280;43816;52.054;-9.494;2024-03-17T01:23:02;100226.09;;;21.69;44.83
57616;BME280;43816;52.054;-9.494;2024-03-17T01:23:12;100196.94;;;21.55;44.65
57616;BME280;43816;52.054;-9.494;2024-03-17T01:23:23;100212.56;;;21.61;44.80
57616;BME280;43816;52.054;-9.494;2024-03-17T01:23:33;100221.66;;;21.68;44.86
57616;BME280;43816;52.054;-9.494;2024-03-17T01:23:43;100181.09;;;21.43;44.68
57616;BME280;43816;52.054;-9.494;2024-03-17T01:23:53;100213.88;;;21.65;44.85
57616;BME280;43816;52.054;-9.494;2024-03-17T01:24:04;100226.09;;;21.69;44.86
57616;BME280;43816;52.054;-9.494;2024-03-17T01:24:14;100229.66;;;21.70;44.70
57616;BME280;43816;52.054;-9.494;2024-03-17T01:24:24;100219.34;;;21.65;44.80
57616;BME280;43816;52.054;-9.494;2024-03-17T01:24:35;100228.81;;;21.69;44.85
57616;BME280;43816;52.054;-9.494;2024-03-17T01:24:45;100221.88;;;21.67;44.71
57616;BME280;43816;52.054;-9.494;2024-03-17T01:24:55;100216.41;;;21.67;44.75
57616;BME280;43816;52.054;-9.494;2024-03-17T01:25:06;100216.59;;;21.65;44.69
57616;BME280;43816;52.054;-9.494;2024-03-17T01:25:16;100223.34;;;21.69;44.76
57616;BME280;43816;52.054;-9.494;2024-03-17T01:25:26;100201.38;;;21.56;44.97
57616;BME280;43816;52.054;-9.494;2024-03-17T01:25:37;100213.88;;;21.65;44.79
57616;BME280;43816;52.054;-9.494;2024-03-17T01:25:47;100174.34;;;21.39;44.75
57616;BME280;43816;52.054;-9.494;2024-03-17T01:25:57;100228.19;;;21.67;44.84
57616;BME280;43816;52.054;-9.494;2024-03-17T01:26:07;100221.22;;;21.65;44.66
57616;BME280;43816;52.054;-9.494;2024-03-17T01:26:18;100213.88;;;21.65;44.88
57616;BME280;43816;52.054;-9.494;2024-03-17T01:26:28;100202.03;;;21.58;45.11
57616;BME280;43816;52.054;-9.494;2024-03-17T01:26:39;100217.66;;;21.64;44.77
57616;BME280;43816;52.054;-9.494;2024-03-17T01:26:49;100214.28;;;21.62;44.91
57616;BME280;43816;52.054;-9.494;2024-03-17T01:27:00;100220.81;;;21.68;44.74
57616;BME280;43816;52.054;-9.494;2024-03-17T01:27:10;100202.03;;;21.58;44.92
57616;BME280;43816;52.054;-9.494;2024-03-17T01:27:21;100197.38;;;21.52;44.88
57616;BME280;43816;52.054;-9.494;2024-03-17T01:27:31;100205.44;;;21.60;45.07
57616;BME280;43816;52.054;-9.494;2024-03-17T01:27:41;100175.41;;;21.38;44.81
57616;BME280;43816;52.054;-9.494;2024-03-17T01:27:52;100187.22;;;21.46;44.96
57616;BME280;43816;52.054;-9.494;2024-03-17T01:28:05;100196.13;;;21.54;44.78
57616;BME280;43816;52.054;-9.494;2024-03-17T01:28:15;100204.97;;;21.56;44.86
57616;BME280;43816;52.054;-9.494;2024-03-17T01:28:26;100188.50;;;21.50;44.69
57616;BME280;43816;52.054;-9.494;2024-03-17T01:28:36;100218.91;;;21.68;44.46
57616;BME280;43816;52.054;-9.494;2024-03-17T01:28:46;100193.59;;;21.53;44.75